createdAt,value
2024-03-10T00:00:16.549Z,99181.38
2024-03-10T00:05:40.524Z,99176.03
2024-03-10T00:11:07.661Z,99194.59
2024-03-10T00:16:30.664Z,99190.00
2024-03-10T00:21:55.329Z,99193.22
2024-03-10T00:27:19.623Z,99176.09
2024-03-10T00:32:43.049Z,99178.81
2024-03-10T00:38:06.505Z,99175.91
2024-03-10T00:43:31.055Z,99162.81
2024-03-10T00:48:56.359Z,99161.81
2024-03-10T00:54:19.513Z,99165.00
2024-03-10T00:59:44.325Z,99161.94
2024-03-10T01:05:08.451Z,99160.75
2024-03-10T01:10:32.818Z,99147.19
2024-03-10T01:15:57.334Z,99158.19
2024-03-10T01:21:22.308Z,99146.38
2024-03-10T01:26:45.513Z,99134.78
2024-03-10T01:32:10.237Z,99130.53
2024-03-10T01:37:33.306Z,99119.59
2024-03-10T01:42:56.719Z,99113.09
2024-03-10T01:48:21.654Z,99123.38
2024-03-10T01:53:44.723Z,99114.16
2024-03-10T01:59:10.410Z,99119.78
2024-03-10T02:04:38.275Z,99115.81
2024-03-10T02:10:02.346Z,99113.53
2024-03-10T02:15:25.714Z,99112.09
2024-03-10T02:20:50.071Z,99112.78
2024-03-10T02:26:16.715Z,99106.31
2024-03-10T02:31:57.388Z,99114.03
2024-03-10T02:37:38.266Z,99099.78
2024-03-10T02:43:20.384Z,99097.38
2024-03-10T02:48:46.212Z,99093.75
2024-03-10T02:54:09.337Z,99087.56
2024-03-10T02:59:33.660Z,99083.66
2024-03-10T03:04:59.686Z,99078.03
2024-03-10T03:10:23.285Z,99089.66
2024-03-10T03:15:47.682Z,99085.81
2024-03-10T03:21:13.365Z,99082.66
2024-03-10T03:26:37.757Z,99082.19
2024-03-10T03:32:02.547Z,99076.44
2024-03-10T03:37:25.457Z,99064.97
2024-03-10T03:42:48.500Z,99056.44
2024-03-10T03:48:13.249Z,99049.13
2024-03-10T03:53:37.099Z,99051.56
2024-03-10T03:59:01.605Z,99064.22
2024-03-10T04:04:27.200Z,99063.38
2024-03-10T04:09:50.226Z,99050.22
2024-03-10T04:15:14.203Z,99045.31
2024-03-10T04:20:43.002Z,99056.53
2024-03-10T04:26:10.577Z,99050.81
2024-03-10T04:31:33.967Z,99055.56
2024-03-10T04:36:58.519Z,99033.94
2024-03-10T04:42:21.679Z,99033.94
2024-03-10T04:47:45.022Z,99025.22
2024-03-10T04:53:12.696Z,99030.31
2024-03-10T04:58:36.086Z,99022.63
2024-03-10T05:04:02.115Z,99024.25
2024-03-10T05:09:26.581Z,99033.84
2024-03-10T05:14:50.775Z,99043.81
2024-03-10T05:20:18.729Z,99037.59
2024-03-10T05:25:43.358Z,99024.84
2024-03-10T05:31:06.590Z,99012.84
2024-03-10T05:36:29.895Z,99020.09
2024-03-10T05:41:55.451Z,99021.38
2024-03-10T05:47:19.241Z,99021.88
2024-03-10T05:52:43.522Z,99027.13
2024-03-10T05:58:13.694Z,99029.31
2024-03-10T06:03:36.966Z,99026.75
2024-03-10T06:09:01.204Z,99021.69
2024-03-10T06:14:31.336Z,99014.91
2024-03-10T06:20:13.865Z,99002.88
2024-03-10T06:25:36.917Z,98988.22
2024-03-10T06:31:03.456Z,98981.94
2024-03-10T06:36:28.513Z,98976.59
2024-03-10T06:41:52.095Z,98981.53
2024-03-10T06:47:16.726Z,98985.84
2024-03-10T06:52:46.581Z,98992.84
2024-03-10T06:58:09.970Z,99002.13
2024-03-10T07:03:37.314Z,98993.78
2024-03-10T07:09:00.689Z,98998.66
2024-03-10T07:14:23.860Z,99006.47
2024-03-10T07:19:48.658Z,98997.53
2024-03-10T07:25:15.897Z,99001.34
2024-03-10T07:30:39.076Z,99011.03
2024-03-10T07:36:03.567Z,99016.63
2024-03-10T07:41:27.295Z,99012.59
2024-03-10T07:46:50.387Z,99011.06
2024-03-10T07:52:15.570Z,99007.53
2024-03-10T07:57:40.876Z,98991.25
2024-03-10T08:03:04.356Z,98995.97
2024-03-10T08:08:29.279Z,99009.00
2024-03-10T08:13:52.702Z,99007.94
2024-03-10T08:19:18.230Z,99015.00
2024-03-10T08:24:42.796Z,99011.47
2024-03-10T08:30:10.323Z,98992.84
2024-03-10T08:35:33.940Z,99001.28
2024-03-10T08:41:00.080Z,98987.75
2024-03-10T08:46:24.400Z,98996.53
2024-03-10T08:51:47.948Z,98986.38
2024-03-10T08:57:13.895Z,98978.31
2024-03-10T09:02:43.270Z,98976.88
2024-03-10T09:08:12.932Z,98972.44
2024-03-10T09:13:39.257Z,98978.66
2024-03-10T09:19:02.531Z,98976.63
2024-03-10T09:24:25.721Z,98981.56
2024-03-10T09:29:58.205Z,98970.97
2024-03-10T09:35:25.940Z,98955.94
2024-03-10T09:40:50.189Z,98967.59
2024-03-10T09:46:15.205Z,98957.84
2024-03-10T09:51:39.796Z,98945.53
2024-03-10T09:57:07.197Z,98947.00
2024-03-10T10:02:36.290Z,98947.00
2024-03-10T10:07:59.765Z,98938.19
2024-03-10T10:13:23.944Z,98925.38
2024-03-10T10:18:54.616Z,98922.28
2024-03-10T10:24:22.992Z,98907.22
2024-03-10T10:29:50.539Z,98901.06
2024-03-10T10:35:17.444Z,98898.72
2024-03-10T10:40:41.283Z,98888.09
2024-03-10T10:46:05.500Z,98878.94
2024-03-10T10:51:30.295Z,98877.41
2024-03-10T10:56:55.669Z,98876.16
2024-03-10T11:02:21.045Z,98865.53
2024-03-10T11:07:46.941Z,98856.88
2024-03-10T11:13:12.015Z,98843.53
2024-03-10T11:18:37.054Z,98816.06
2024-03-10T11:24:02.160Z,98821.38
2024-03-10T11:29:28.204Z,98814.00
2024-03-10T11:34:52.518Z,98799.31
2024-03-10T11:40:17.726Z,98813.19
2024-03-10T11:45:41.764Z,98821.50
2024-03-10T11:51:06.346Z,98833.09
2024-03-10T11:56:33.452Z,98819.13
2024-03-10T12:01:58.489Z,98821.41
2024-03-10T12:07:26.718Z,98819.88
2024-03-10T12:12:53.347Z,98832.97
2024-03-10T12:18:18.237Z,98833.28
2024-03-10T12:23:43.313Z,98842.00
2024-03-10T12:29:10.014Z,98831.56
2024-03-10T12:34:33.211Z,98812.91
2024-03-10T12:39:57.360Z,98778.41
2024-03-10T12:45:24.284Z,98774.69
2024-03-10T12:50:50.398Z,98761.66
2024-03-10T12:56:14.625Z,98759.63
2024-03-10T13:01:39.207Z,98744.09
2024-03-10T13:07:02.216Z,98753.66
2024-03-10T13:12:25.408Z,98741.13
2024-03-10T13:17:50.207Z,98728.44
2024-03-10T13:23:14.508Z,98713.31
2024-03-10T13:28:37.628Z,98726.63
2024-03-10T13:34:02.749Z,98727.94
2024-03-10T13:39:28.973Z,98716.81
2024-03-10T13:44:53.849Z,98707.22
2024-03-10T13:50:20.833Z,98715.88
2024-03-10T13:55:45.378Z,98704.91
2024-03-10T14:01:08.576Z,98707.97
2024-03-10T14:06:33.456Z,98717.78
2024-03-10T14:11:57.461Z,98718.03
2024-03-10T14:17:20.645Z,98721.59
2024-03-10T14:22:46.865Z,98731.00
2024-03-10T14:28:09.930Z,98716.63
2024-03-10T14:33:34.426Z,98713.34
2024-03-10T14:38:58.876Z,98705.00
2024-03-10T14:44:22.720Z,98702.91
2024-03-10T14:49:48.587Z,98691.41
2024-03-10T14:55:16.355Z,98678.00
2024-03-10T15:00:42.062Z,98681.69
2024-03-10T15:06:06.852Z,98687.75
2024-03-10T15:11:32.170Z,98687.75
2024-03-10T15:16:55.670Z,98691.00
2024-03-10T15:22:19.235Z,98686.31
2024-03-10T15:27:43.597Z,98672.16
2024-03-10T15:33:06.812Z,98654.09
2024-03-10T15:38:30.205Z,98658.69
2024-03-10T15:43:55.899Z,98651.47
2024-03-10T15:49:19.039Z,98657.78
2024-03-10T15:54:42.251Z,98660.91
2024-03-10T16:00:08.434Z,98656.66
2024-03-10T16:05:38.816Z,98683.97
2024-03-10T16:11:02.070Z,98689.25
2024-03-10T16:16:26.625Z,98693.38
2024-03-10T16:21:52.653Z,98695.53
2024-03-10T16:27:16.944Z,98703.44
2024-03-10T16:32:41.629Z,98697.31
2024-03-10T16:38:07.665Z,98693.78
2024-03-10T16:43:30.700Z,98712.28
2024-03-10T16:48:55.290Z,98708.09
2024-03-10T16:54:18.160Z,98698.50
2024-03-10T16:59:42.411Z,98695.41
2024-03-10T17:05:07.233Z,98691.97
2024-03-10T17:10:31.028Z,98704.31
2024-03-10T17:15:54.269Z,98712.34
2024-03-10T17:21:18.846Z,98715.22
2024-03-10T17:26:43.147Z,98722.75
2024-03-10T17:32:07.418Z,98711.31
2024-03-10T17:37:32.142Z,98716.78
2024-03-10T17:42:56.439Z,98714.50
2024-03-10T17:48:20.060Z,98713.94
2024-03-10T17:53:46.253Z,98715.22
2024-03-10T17:59:09.295Z,98706.00
2024-03-10T18:04:35.122Z,98687.94
2024-03-10T18:10:00.325Z,98688.78
2024-03-10T18:15:25.765Z,98690.91
2024-03-10T18:20:50.124Z,98675.09
2024-03-10T18:26:14.920Z,98671.91
2024-03-10T18:31:38.693Z,98680.72
2024-03-10T18:37:01.872Z,98671.66
2024-03-10T18:42:26.249Z,98668.22
2024-03-10T18:47:49.400Z,98664.22
2024-03-10T18:53:12.434Z,98667.84
2024-03-10T18:58:36.762Z,98672.50
2024-03-10T19:04:00.885Z,98667.66
2024-03-10T19:09:24.320Z,98664.66
2024-03-10T19:14:48.704Z,98674.25
2024-03-10T19:20:22.406Z,98670.44
2024-03-10T19:25:48.948Z,98675.13
2024-03-10T19:31:13.280Z,98679.28
2024-03-10T19:36:41.333Z,98681.91
2024-03-10T19:42:04.485Z,98674.84
2024-03-10T19:47:28.843Z,98659.63
2024-03-10T19:52:54.215Z,98658.91
2024-03-10T19:58:17.652Z,98657.09
2024-03-10T20:03:41.949Z,98662.63
2024-03-10T20:09:06.701Z,98661.84
2024-03-10T20:14:30.335Z,98663.81
2024-03-10T20:19:55.428Z,98661.13
2024-03-10T20:25:19.662Z,98666.03
2024-03-10T20:30:42.662Z,98657.91
2024-03-10T20:36:09.762Z,98656.88
2024-03-10T20:41:32.703Z,98667.66
2024-03-10T20:46:55.672Z,98667.47
2024-03-10T20:52:20.485Z,98659.09
2024-03-10T20:57:45.871Z,98665.00
2024-03-10T21:03:08.781Z,98659.94
2024-03-10T21:08:33.877Z,98649.50
2024-03-10T21:13:56.845Z,98647.50
2024-03-10T21:19:20.106Z,98647.03
2024-03-10T21:24:44.378Z,98644.53
2024-03-10T21:30:08.755Z,98655.41
2024-03-10T21:35:31.843Z,98645.81
2024-03-10T21:40:59.076Z,98652.31
2024-03-10T21:46:22.614Z,98652.59
2024-03-10T21:51:46.737Z,98630.38
2024-03-10T21:57:11.011Z,98643.19
2024-03-10T22:02:34.567Z,98634.72
2024-03-10T22:07:57.846Z,98637.81
2024-03-10T22:13:22.242Z,98631.94
2024-03-10T22:18:45.785Z,98638.31
2024-03-10T22:24:09.586Z,98649.31
2024-03-10T22:29:33.846Z,98652.94
2024-03-10T22:34:56.844Z,98644.06
2024-03-10T22:40:21.463Z,98633.25
2024-03-10T22:45:45.965Z,98626.72
2024-03-10T22:51:09.078Z,98627.28
2024-03-10T22:56:32.299Z,98625.97
2024-03-10T23:01:56.688Z,98625.00
2024-03-10T23:07:19.772Z,98646.69
2024-03-10T23:12:43.357Z,98638.06
2024-03-10T23:18:08.585Z,98660.00
2024-03-10T23:23:34.558Z,98655.97
2024-03-10T23:28:59.072Z,98663.50
2024-03-10T23:34:23.306Z,98650.25
2024-03-10T23:39:48.030Z,98654.19
2024-03-10T23:45:13.688Z,98657.03
2024-03-10T23:50:38.119Z,98654.81
2024-03-10T23:56:04.259Z,98675.50
